createdAt,value
2018-03-11T00:00:43.556Z,991.75
2018-03-11T00:01:43.526Z,991.75
2018-03-11T00:03:36.497Z,991.71
2018-03-11T00:04:36.472Z,991.71
2018-03-11T00:06:29.288Z,991.72
2018-03-11T00:07:29.247Z,991.72
2018-03-11T00:09:22.232Z,991.73
2018-03-11T00:10:22.167Z,991.67
2018-03-11T00:12:15.141Z,991.67
2018-03-11T00:13:15.078Z,991.68
2018-03-11T00:15:08.065Z,991.70
2018-03-11T00:16:08.028Z,991.74
2018-03-11T00:18:01.066Z,991.70
2018-03-11T00:19:01.033Z,991.71
2018-03-11T00:20:53.988Z,991.65
2018-03-11T00:21:53.943Z,991.62
2018-03-11T00:23:46.888Z,991.60
2018-03-11T00:24:46.843Z,991.58
2018-03-11T00:26:39.691Z,991.56
2018-03-11T00:27:39.638Z,991.53
2018-03-11T00:29:32.631Z,991.43
2018-03-11T00:30:32.552Z,991.43
2018-03-11T00:32:25.368Z,991.39
2018-03-11T00:33:25.328Z,991.39
2018-03-11T00:35:18.310Z,991.38
2018-03-11T00:36:18.249Z,991.35
2018-03-11T00:38:11.375Z,991.29
2018-03-11T00:39:11.336Z,991.27
2018-03-11T00:41:04.339Z,991.25
2018-03-11T00:42:04.249Z,991.26
2018-03-11T00:43:57.598Z,991.35
2018-03-11T00:44:57.506Z,991.30
2018-03-11T00:46:50.487Z,991.35
2018-03-11T00:47:50.424Z,991.33
2018-03-11T00:49:43.392Z,991.31
2018-03-11T00:50:43.346Z,991.30
2018-03-11T00:52:36.274Z,991.25
2018-03-11T00:53:36.232Z,991.23
2018-03-11T00:55:29.155Z,991.24
2018-03-11T00:56:29.118Z,991.22
2018-03-11T00:58:22.118Z,991.21
2018-03-11T00:59:22.124Z,991.17
2018-03-11T01:01:15.217Z,991.22
2018-03-11T01:02:15.170Z,991.17
2018-03-11T01:04:08.108Z,991.13
2018-03-11T01:05:08.056Z,991.12
2018-03-11T01:07:01.364Z,991.07
2018-03-11T01:08:01.307Z,991.04
2018-03-11T01:09:54.243Z,991.06
2018-03-11T01:10:54.161Z,991.03
2018-03-11T01:12:47.974Z,991.03
2018-03-11T01:13:47.242Z,991.03
2018-03-11T01:15:40.072Z,990.99
2018-03-11T01:16:40.038Z,990.95
2018-03-11T01:18:33.089Z,990.91
2018-03-11T01:19:33.025Z,990.89
2018-03-11T01:21:25.975Z,990.82
2018-03-11T01:22:25.946Z,990.80
2018-03-11T01:24:18.922Z,990.79
2018-03-11T01:25:18.855Z,990.78
2018-03-11T01:27:11.943Z,990.71
2018-03-11T01:28:11.880Z,990.69
2018-03-11T01:30:04.729Z,990.67
2018-03-11T01:31:04.687Z,990.67
2018-03-11T01:32:57.631Z,990.62
2018-03-11T01:33:57.578Z,990.64
2018-03-11T01:35:50.716Z,990.50
2018-03-11T01:36:50.671Z,990.50
2018-03-11T01:38:43.640Z,990.47
2018-03-11T01:39:43.588Z,990.45
2018-03-11T01:41:36.537Z,990.48
2018-03-11T01:42:36.507Z,990.46
2018-03-11T01:44:29.489Z,990.43
2018-03-11T01:45:29.297Z,990.42
2018-03-11T01:47:22.322Z,990.39
2018-03-11T01:48:22.297Z,990.39
2018-03-11T01:50:15.100Z,990.37
2018-03-11T01:51:15.048Z,990.32
2018-03-11T01:53:07.996Z,990.23
2018-03-11T01:54:07.957Z,990.20
2018-03-11T01:56:01.024Z,990.16
2018-03-11T01:57:00.956Z,990.17
2018-03-11T01:58:53.928Z,990.16
2018-03-11T01:59:53.868Z,990.11
2018-03-11T02:01:46.817Z,990.10
2018-03-11T02:02:46.803Z,990.09
2018-03-11T02:04:39.937Z,990.10
2018-03-11T02:05:39.877Z,990.04
2018-03-11T02:07:32.837Z,989.96
2018-03-11T02:08:32.800Z,989.91
2018-03-11T02:10:25.759Z,989.87
2018-03-11T02:11:25.708Z,989.85
2018-03-11T02:13:18.517Z,989.82
2018-03-11T02:14:18.487Z,989.80
2018-03-11T02:16:11.463Z,989.79
2018-03-11T02:17:11.259Z,989.76
2018-03-11T02:19:04.219Z,989.75
2018-03-11T02:20:04.173Z,989.72
2018-03-11T02:21:56.988Z,989.68
2018-03-11T02:22:56.943Z,989.64
2018-03-11T02:24:49.898Z,989.67
2018-03-11T02:25:49.869Z,989.63
2018-03-11T02:27:42.758Z,989.57
2018-03-11T02:28:42.698Z,989.56
2018-03-11T02:30:35.654Z,989.55
2018-03-11T02:31:35.613Z,989.52
2018-03-11T02:33:28.601Z,989.42
2018-03-11T02:34:28.597Z,989.42
2018-03-11T02:36:21.892Z,989.34
2018-03-11T02:37:21.833Z,989.27
2018-03-11T02:39:14.819Z,989.21
2018-03-11T02:40:14.873Z,989.25
2018-03-11T02:42:08.051Z,989.28
2018-03-11T02:43:07.877Z,989.34
2018-03-11T02:45:01.824Z,989.39
2018-03-11T02:46:01.793Z,989.40
2018-03-11T02:47:54.789Z,989.47
2018-03-11T02:48:54.739Z,989.55
2018-03-11T02:50:47.580Z,989.54
2018-03-11T02:51:47.537Z,989.53
2018-03-11T02:53:40.511Z,989.51
2018-03-11T02:54:40.459Z,989.49
2018-03-11T02:56:33.893Z,989.45
2018-03-11T02:57:33.373Z,989.41
2018-03-11T02:59:26.347Z,989.34
2018-03-11T03:00:26.278Z,989.28
2018-03-11T03:02:19.158Z,989.22
2018-03-11T03:03:19.109Z,989.19
2018-03-11T03:05:11.949Z,989.09
2018-03-11T03:06:11.877Z,989.08
2018-03-11T03:08:04.870Z,989.05
2018-03-11T03:09:04.835Z,988.99
2018-03-11T03:10:58.192Z,989.00
2018-03-11T03:11:58.088Z,989.00
2018-03-11T03:13:51.059Z,989.01
2018-03-11T03:14:51.010Z,989.00
2018-03-11T03:16:43.960Z,988.91
2018-03-11T03:17:43.919Z,988.89
2018-03-11T03:19:36.751Z,988.88
2018-03-11T03:20:36.713Z,988.88
2018-03-11T03:22:29.659Z,988.83
2018-03-11T03:23:29.608Z,988.80
2018-03-11T03:25:22.594Z,988.79
2018-03-11T03:26:22.549Z,988.78
2018-03-11T03:28:15.500Z,988.80
2018-03-11T03:29:15.489Z,988.82
2018-03-11T03:31:08.553Z,988.78
2018-03-11T03:32:08.518Z,988.73
2018-03-11T03:34:01.449Z,988.72
2018-03-11T03:35:01.412Z,988.71
2018-03-11T03:36:54.400Z,988.66
2018-03-11T03:37:54.337Z,988.68
2018-03-11T03:39:47.204Z,988.68
2018-03-11T03:40:47.147Z,988.62
2018-03-11T03:42:39.992Z,988.60
2018-03-11T03:43:39.917Z,988.57
2018-03-11T03:45:32.877Z,988.60
2018-03-11T03:46:32.834Z,988.59
2018-03-11T03:48:25.833Z,988.57
2018-03-11T03:49:25.739Z,988.55
2018-03-11T03:51:18.577Z,988.37
2018-03-11T03:52:18.518Z,988.31
2018-03-11T03:54:11.570Z,988.25
2018-03-11T03:55:11.514Z,988.21
2018-03-11T03:57:04.527Z,988.19
2018-03-11T03:58:04.497Z,988.17
2018-03-11T03:59:57.792Z,988.16
2018-03-11T04:00:57.738Z,988.12
2018-03-11T04:02:50.708Z,988.01
2018-03-11T04:03:50.760Z,987.98
2018-03-11T04:05:44.015Z,987.95
2018-03-11T04:06:43.957Z,987.93
2018-03-11T04:08:36.903Z,987.91
2018-03-11T04:09:36.897Z,987.96
2018-03-11T04:11:29.845Z,987.84
2018-03-11T04:12:29.800Z,987.83
2018-03-11T04:14:22.823Z,987.81
2018-03-11T04:15:22.786Z,987.70
2018-03-11T04:17:15.778Z,987.74
2018-03-11T04:18:15.706Z,987.76
2018-03-11T04:20:08.698Z,987.77
2018-03-11T04:21:08.633Z,987.77
2018-03-11T04:23:01.490Z,987.69
2018-03-11T04:24:01.432Z,987.70
2018-03-11T04:25:54.403Z,987.86
2018-03-11T04:26:54.348Z,987.85
2018-03-11T04:28:47.314Z,987.77
2018-03-11T04:29:47.344Z,987.88
2018-03-11T04:31:40.548Z,987.92
2018-03-11T04:32:40.422Z,987.91
2018-03-11T04:34:33.375Z,987.99
2018-03-11T04:35:33.339Z,987.97
2018-03-11T04:37:26.302Z,987.88
2018-03-11T04:38:26.248Z,987.87
2018-03-11T04:40:19.240Z,987.87
2018-03-11T04:41:19.163Z,987.79
2018-03-11T04:43:12.124Z,987.75
2018-03-11T04:44:12.073Z,987.67
2018-03-11T04:46:05.022Z,987.61
2018-03-11T04:47:05.007Z,987.60
2018-03-11T04:48:58.248Z,987.61
2018-03-11T04:49:58.075Z,987.55
2018-03-11T04:51:50.963Z,987.55
2018-03-11T04:52:50.851Z,987.56
2018-03-11T04:54:43.819Z,987.54
2018-03-11T04:55:43.759Z,987.57
2018-03-11T04:57:36.732Z,987.55
2018-03-11T04:58:36.673Z,987.56
2018-03-11T05:00:29.759Z,987.53
2018-03-11T05:01:29.722Z,987.56
2018-03-11T05:03:22.700Z,987.45
2018-03-11T05:04:22.651Z,987.47
2018-03-11T05:06:15.721Z,987.50
2018-03-11T05:07:15.669Z,987.51
2018-03-11T05:09:08.633Z,987.47
2018-03-11T05:10:08.589Z,987.37
2018-03-11T05:12:01.548Z,987.36
2018-03-11T05:13:01.511Z,987.35
2018-03-11T05:14:54.459Z,987.28
2018-03-11T05:15:54.414Z,987.28
2018-03-11T05:17:47.250Z,987.22
2018-03-11T05:18:47.180Z,987.19
2018-03-11T05:20:40.130Z,987.19
2018-03-11T05:21:40.110Z,987.16
2018-03-11T05:23:33.150Z,987.13
2018-03-11T05:24:33.111Z,987.11
2018-03-11T05:26:26.176Z,987.06
2018-03-11T05:27:26.140Z,987.04
2018-03-11T05:29:19.128Z,987.02
2018-03-11T05:30:19.054Z,986.96
2018-03-11T05:32:12.381Z,986.96
2018-03-11T05:33:12.329Z,986.95
2018-03-11T05:35:05.309Z,986.86
2018-03-11T05:36:05.259Z,986.83
2018-03-11T05:37:58.218Z,986.92
2018-03-11T05:38:58.223Z,986.88
2018-03-11T05:40:51.354Z,986.93
2018-03-11T05:41:51.289Z,986.95
2018-03-11T05:43:44.580Z,986.98
2018-03-11T05:44:44.546Z,987.02
2018-03-11T05:46:38.411Z,987.00
2018-03-11T05:47:38.344Z,986.99
2018-03-11T05:49:31.296Z,986.99
2018-03-11T05:50:31.262Z,986.97
2018-03-11T05:52:24.250Z,987.00
2018-03-11T05:53:24.240Z,986.98
2018-03-11T05:55:17.324Z,986.96
2018-03-11T05:56:17.276Z,987.00
2018-03-11T05:58:10.251Z,986.96
2018-03-11T05:59:10.188Z,986.98
2018-03-11T06:01:03.160Z,986.91
2018-03-11T06:02:03.107Z,986.93
2018-03-11T06:03:56.310Z,986.91
2018-03-11T06:04:56.266Z,986.87
2018-03-11T06:06:49.281Z,986.82
2018-03-11T06:07:49.233Z,986.78
2018-03-11T06:09:43.471Z,986.73
2018-03-11T06:10:43.306Z,986.73
2018-03-11T06:12:36.292Z,986.74
2018-03-11T06:13:36.236Z,986.74
2018-03-11T06:15:29.201Z,986.70
2018-03-11T06:16:29.164Z,986.68
2018-03-11T06:18:22.384Z,986.68
2018-03-11T06:19:22.234Z,986.71
2018-03-11T06:21:15.194Z,986.67
2018-03-11T06:22:15.155Z,986.66
2018-03-11T06:24:08.149Z,986.64
2018-03-11T06:25:08.075Z,986.63
2018-03-11T06:27:01.190Z,986.61
2018-03-11T06:28:00.985Z,986.66
2018-03-11T06:29:53.924Z,986.64
2018-03-11T06:30:53.886Z,986.64
2018-03-11T06:32:46.876Z,986.59
2018-03-11T06:33:46.805Z,986.52
2018-03-11T06:35:40.004Z,986.54
2018-03-11T06:36:39.911Z,986.50
2018-03-11T06:38:32.873Z,986.54
2018-03-11T06:39:32.825Z,986.52
2018-03-11T06:41:25.781Z,986.57
2018-03-11T06:42:25.739Z,986.57
2018-03-11T06:44:18.914Z,986.55
2018-03-11T06:45:18.844Z,986.54
2018-03-11T06:47:11.682Z,986.53
2018-03-11T06:48:11.606Z,986.49
2018-03-11T06:50:04.426Z,986.43
2018-03-11T06:51:04.375Z,986.35
2018-03-11T06:52:57.361Z,986.31
2018-03-11T06:53:57.306Z,986.31
2018-03-11T06:55:50.474Z,986.24
2018-03-11T06:56:50.430Z,986.26
2018-03-11T06:58:43.399Z,986.28
2018-03-11T06:59:43.355Z,986.33
2018-03-11T07:01:36.489Z,986.31
2018-03-11T07:02:36.451Z,986.28
2018-03-11T07:04:29.449Z,986.28
2018-03-11T07:05:29.403Z,986.29
2018-03-11T07:07:22.334Z,986.32
2018-03-11T07:08:22.304Z,986.31
2018-03-11T07:10:15.509Z,986.29
2018-03-11T07:11:15.394Z,986.33
2018-03-11T07:13:08.463Z,986.34
2018-03-11T07:14:08.426Z,986.32
2018-03-11T07:16:01.671Z,986.31
2018-03-11T07:17:01.570Z,986.30
2018-03-11T07:18:54.558Z,986.22
2018-03-11T07:19:54.521Z,986.24
2018-03-11T07:21:47.474Z,986.27
2018-03-11T07:22:47.444Z,986.29
2018-03-11T07:24:40.440Z,986.26
2018-03-11T07:25:40.382Z,986.26
2018-03-11T07:27:33.333Z,986.30
2018-03-11T07:28:33.307Z,986.29
2018-03-11T07:30:26.291Z,986.30
2018-03-11T07:31:26.231Z,986.31
2018-03-11T07:33:20.379Z,986.39
2018-03-11T07:34:20.348Z,986.41
2018-03-11T07:36:13.305Z,986.41
2018-03-11T07:37:13.257Z,986.46
2018-03-11T07:39:06.089Z,986.46
2018-03-11T07:40:06.024Z,986.50
2018-03-11T07:41:58.834Z,986.48
2018-03-11T07:42:58.806Z,986.52
2018-03-11T07:44:51.626Z,986.54
2018-03-11T07:45:51.570Z,986.52
2018-03-11T07:47:44.537Z,986.55
2018-03-11T07:48:44.499Z,986.54
2018-03-11T07:50:37.491Z,986.53
2018-03-11T07:51:37.430Z,986.57
2018-03-11T07:53:30.381Z,986.54
2018-03-11T07:54:30.347Z,986.54
2018-03-11T07:56:23.360Z,986.54
2018-03-11T07:57:23.301Z,986.56
2018-03-11T07:59:16.281Z,986.56
2018-03-11T08:00:16.214Z,986.50
2018-03-11T08:02:09.199Z,986.49
2018-03-11T08:03:09.147Z,986.43
2018-03-11T08:05:02.077Z,986.45
2018-03-11T08:06:02.010Z,986.45
2018-03-11T08:07:54.985Z,986.43
2018-03-11T08:08:54.935Z,986.44
2018-03-11T08:10:47.918Z,986.41
2018-03-11T08:11:47.846Z,986.40
2018-03-11T08:13:40.858Z,986.39
2018-03-11T08:14:40.810Z,986.35
2018-03-11T08:16:33.797Z,986.31
2018-03-11T08:17:33.736Z,986.33
2018-03-11T08:19:26.672Z,986.40
2018-03-11T08:20:26.645Z,986.40
2018-03-11T08:22:19.610Z,986.36
2018-03-11T08:23:19.567Z,986.43
2018-03-11T08:25:12.385Z,986.50
2018-03-11T08:26:12.332Z,986.55
2018-03-11T08:28:05.351Z,986.55
2018-03-11T08:29:05.283Z,986.56
2018-03-11T08:30:58.224Z,986.57
2018-03-11T08:31:58.260Z,986.54
2018-03-11T08:33:51.374Z,986.49
2018-03-11T08:34:51.312Z,986.57
2018-03-11T08:36:44.312Z,986.54
2018-03-11T08:37:44.284Z,986.59
2018-03-11T08:39:37.261Z,986.56
2018-03-11T08:40:37.216Z,986.58
2018-03-11T08:42:30.022Z,986.52
2018-03-11T08:43:29.986Z,986.56
2018-03-11T08:45:24.202Z,986.55
2018-03-11T08:46:24.145Z,986.56
2018-03-11T08:48:17.098Z,986.53
2018-03-11T08:49:17.071Z,986.54
2018-03-11T08:51:10.096Z,986.62
2018-03-11T08:52:10.037Z,986.59
2018-03-11T08:54:03.006Z,986.58
2018-03-11T08:55:02.958Z,986.60
2018-03-11T08:56:56.100Z,986.56
2018-03-11T08:57:56.067Z,986.56
2018-03-11T08:59:49.056Z,986.58
2018-03-11T09:00:48.992Z,986.59
2018-03-11T09:02:41.946Z,986.55
2018-03-11T09:03:41.941Z,986.59
2018-03-11T09:05:34.874Z,986.52
2018-03-11T09:06:34.829Z,986.55
2018-03-11T09:08:27.872Z,986.55
2018-03-11T09:09:27.813Z,986.56
2018-03-11T09:11:20.827Z,986.61
2018-03-11T09:12:20.760Z,986.59
2018-03-11T09:14:13.780Z,986.52
2018-03-11T09:15:13.701Z,986.50
2018-03-11T09:17:06.741Z,986.58
2018-03-11T09:18:06.660Z,986.50
2018-03-11T09:19:59.635Z,986.44
2018-03-11T09:20:59.597Z,986.43
2018-03-11T09:22:52.458Z,986.41
2018-03-11T09:23:52.382Z,986.40
2018-03-11T09:25:45.552Z,986.41
2018-03-11T09:26:45.519Z,986.40
2018-03-11T09:28:38.653Z,986.45
2018-03-11T09:29:38.618Z,986.42
2018-03-11T09:31:31.447Z,986.38
2018-03-11T09:32:31.399Z,986.39
2018-03-11T09:34:24.239Z,986.38
2018-03-11T09:35:24.186Z,986.42
2018-03-11T09:37:17.542Z,986.38
2018-03-11T09:38:17.467Z,986.36
2018-03-11T09:40:10.596Z,986.34
2018-03-11T09:41:10.566Z,986.35
2018-03-11T09:43:03.616Z,986.36
2018-03-11T09:44:03.508Z,986.33
2018-03-11T09:45:56.476Z,986.33
2018-03-11T09:46:56.431Z,986.31
2018-03-11T09:48:49.548Z,986.38
2018-03-11T09:49:49.461Z,986.36
2018-03-11T09:51:42.417Z,986.39
2018-03-11T09:52:42.368Z,986.39
2018-03-11T09:54:35.345Z,986.38
2018-03-11T09:55:35.286Z,986.37
2018-03-11T09:57:28.149Z,986.38
2018-03-11T09:58:28.090Z,986.40
2018-03-11T10:00:20.961Z,986.37
2018-03-11T10:01:20.870Z,986.42
2018-03-11T10:03:14.028Z,986.46
2018-03-11T10:04:13.979Z,986.47
2018-03-11T10:06:07.163Z,986.50
2018-03-11T10:07:07.180Z,986.47
2018-03-11T10:09:00.063Z,986.48
2018-03-11T10:10:00.005Z,986.47
2018-03-11T10:11:52.840Z,986.52
2018-03-11T10:12:52.811Z,986.53
2018-03-11T10:14:46.094Z,986.56
2018-03-11T10:15:45.898Z,986.58
2018-03-11T10:17:38.886Z,986.58
2018-03-11T10:18:38.843Z,986.59
2018-03-11T10:20:31.804Z,986.57
2018-03-11T10:21:31.747Z,986.55
2018-03-11T10:23:24.606Z,986.51
2018-03-11T10:24:24.527Z,986.54
2018-03-11T10:26:17.608Z,986.61
2018-03-11T10:27:17.482Z,986.64
2018-03-11T10:29:10.481Z,986.64
2018-03-11T10:30:10.461Z,986.60
2018-03-11T10:32:03.422Z,986.61
2018-03-11T10:33:03.384Z,986.61
2018-03-11T10:34:56.409Z,986.63
2018-03-11T10:35:56.154Z,986.57
2018-03-11T10:37:49.203Z,986.52
2018-03-11T10:38:49.129Z,986.56
2018-03-11T10:40:42.083Z,986.67
2018-03-11T10:41:42.103Z,986.71
2018-03-11T10:43:35.181Z,986.71
2018-03-11T10:44:35.151Z,986.71
2018-03-11T10:46:28.162Z,986.74
2018-03-11T10:47:28.107Z,986.70
2018-03-11T10:49:21.527Z,986.71
2018-03-11T10:50:21.402Z,986.68
2018-03-11T10:52:14.359Z,986.60
2018-03-11T10:53:14.338Z,986.54
2018-03-11T10:55:07.344Z,986.56
2018-03-11T10:56:07.252Z,986.58
2018-03-11T10:58:00.136Z,986.53
2018-03-11T10:59:00.125Z,986.54
2018-03-11T11:00:53.094Z,986.50
2018-03-11T11:01:53.043Z,986.52
2018-03-11T11:03:46.010Z,986.48
2018-03-11T11:04:45.982Z,986.52
2018-03-11T11:06:39.172Z,986.54
2018-03-11T11:07:39.094Z,986.54
2018-03-11T11:09:32.049Z,986.55
2018-03-11T11:10:32.022Z,986.52
2018-03-11T11:12:24.848Z,986.59
2018-03-11T11:13:24.837Z,986.56
2018-03-11T11:15:18.051Z,986.61
2018-03-11T11:16:17.913Z,986.63
2018-03-11T11:18:10.893Z,986.63
2018-03-11T11:19:10.897Z,986.70
2018-03-11T11:21:04.198Z,986.66
2018-03-11T11:22:04.111Z,986.61
2018-03-11T11:23:57.070Z,986.61
2018-03-11T11:24:57.070Z,986.57
2018-03-11T11:26:50.080Z,986.67
2018-03-11T11:27:49.998Z,986.60
2018-03-11T11:29:43.159Z,986.66
2018-03-11T11:30:43.125Z,986.63
2018-03-11T11:32:36.123Z,986.65
2018-03-11T11:33:36.065Z,986.61
2018-03-11T11:35:29.454Z,986.62
2018-03-11T11:36:29.410Z,986.54
2018-03-11T11:38:22.409Z,986.59
2018-03-11T11:39:22.363Z,986.58
2018-03-11T11:41:15.559Z,986.60
2018-03-11T11:42:15.488Z,986.56
2018-03-11T11:44:08.487Z,986.59
2018-03-11T11:45:08.414Z,986.57
2018-03-11T11:47:01.384Z,986.52
2018-03-11T11:48:01.362Z,986.52
2018-03-11T11:49:54.234Z,986.46
2018-03-11T11:50:54.188Z,986.42
2018-03-11T11:52:47.126Z,986.40
2018-03-11T11:53:47.125Z,986.46
2018-03-11T11:55:40.073Z,986.47
2018-03-11T11:56:40.048Z,986.47
2018-03-11T11:58:33.003Z,986.50
2018-03-11T11:59:32.937Z,986.47
2018-03-11T12:01:25.753Z,986.54
2018-03-11T12:02:25.749Z,986.48
2018-03-11T12:04:18.711Z,986.49
2018-03-11T12:05:18.696Z,986.46
2018-03-11T12:07:11.622Z,986.49
2018-03-11T12:08:11.595Z,986.43
2018-03-11T12:10:04.804Z,986.43
2018-03-11T12:11:04.773Z,986.44
2018-03-11T12:12:58.703Z,986.44
2018-03-11T12:13:58.654Z,986.47
2018-03-11T12:15:51.634Z,986.39
2018-03-11T12:16:51.596Z,986.34
2018-03-11T12:18:46.622Z,986.29
2018-03-11T12:19:46.599Z,986.26
2018-03-11T12:21:39.439Z,986.23
2018-03-11T12:22:39.423Z,986.24
2018-03-11T12:24:32.367Z,986.24
2018-03-11T12:25:32.318Z,986.20
2018-03-11T12:27:25.458Z,986.14
2018-03-11T12:28:25.400Z,986.14
2018-03-11T12:30:18.379Z,986.16
2018-03-11T12:31:18.317Z,986.11
2018-03-11T12:33:11.269Z,986.08
2018-03-11T12:34:11.245Z,986.06
2018-03-11T12:36:04.114Z,986.02
2018-03-11T12:37:04.066Z,985.98
2018-03-11T12:38:57.043Z,985.98
2018-03-11T12:39:57.000Z,985.95
2018-03-11T12:41:49.862Z,985.99
2018-03-11T12:42:49.793Z,986.00
2018-03-11T12:44:42.732Z,986.03
2018-03-11T12:45:42.719Z,985.96
2018-03-11T12:47:35.648Z,985.90
2018-03-11T12:48:35.555Z,985.86
2018-03-11T12:50:28.524Z,985.85
2018-03-11T12:51:28.481Z,985.85
2018-03-11T12:53:21.433Z,985.80
2018-03-11T12:54:21.427Z,985.81
2018-03-11T12:56:15.559Z,985.81
2018-03-11T12:57:15.490Z,985.77
2018-03-11T12:59:08.321Z,985.79
2018-03-11T13:00:08.279Z,985.77
2018-03-11T13:02:01.288Z,985.74
2018-03-11T13:03:01.227Z,985.78
2018-03-11T13:04:54.375Z,985.79
2018-03-11T13:05:54.344Z,985.81
2018-03-11T13:07:47.308Z,985.78
2018-03-11T13:08:47.272Z,985.73
2018-03-11T13:10:40.276Z,985.74
2018-03-11T13:11:40.213Z,985.75
2018-03-11T13:13:33.103Z,985.71
2018-03-11T13:14:33.023Z,985.69
2018-03-11T13:16:26.368Z,985.75
2018-03-11T13:17:26.372Z,985.72
2018-03-11T13:19:19.469Z,985.67
2018-03-11T13:20:19.417Z,985.68
2018-03-11T13:22:12.427Z,985.55
2018-03-11T13:23:12.371Z,985.45
2018-03-11T13:25:05.337Z,985.42
2018-03-11T13:26:05.301Z,985.44
2018-03-11T13:27:58.146Z,985.48
2018-03-11T13:28:58.124Z,985.47
2018-03-11T13:30:51.044Z,985.42
2018-03-11T13:31:51.011Z,985.40
2018-03-11T13:33:43.856Z,985.37
2018-03-11T13:34:43.803Z,985.29
2018-03-11T13:36:36.758Z,985.27
2018-03-11T13:37:36.703Z,985.28
2018-03-11T13:39:29.887Z,985.28
2018-03-11T13:40:29.839Z,985.27
2018-03-11T13:42:22.837Z,985.28
2018-03-11T13:43:22.749Z,985.31
2018-03-11T13:45:15.771Z,985.35
2018-03-11T13:46:15.699Z,985.39
2018-03-11T13:48:08.550Z,985.45
2018-03-11T13:49:08.495Z,985.45
2018-03-11T13:51:01.453Z,985.47
2018-03-11T13:52:01.496Z,985.49
2018-03-11T13:53:54.444Z,985.51
2018-03-11T13:54:54.437Z,985.48
2018-03-11T13:56:47.588Z,985.47
2018-03-11T13:57:47.512Z,985.53
2018-03-11T13:59:40.493Z,985.53
2018-03-11T14:00:40.448Z,985.50
2018-03-11T14:02:33.253Z,985.49
2018-03-11T14:03:33.277Z,985.49
2018-03-11T14:05:26.411Z,985.50
2018-03-11T14:06:26.299Z,985.54
2018-03-11T14:08:19.357Z,985.63
2018-03-11T14:09:19.299Z,985.64
2018-03-11T14:11:12.273Z,985.63
2018-03-11T14:12:12.213Z,985.64
2018-03-11T14:14:05.289Z,985.56
2018-03-11T14:15:05.245Z,985.56
2018-03-11T14:16:58.245Z,985.60
2018-03-11T14:17:58.222Z,985.61
2018-03-11T14:19:51.167Z,985.55
2018-03-11T14:20:51.129Z,985.59
2018-03-11T14:22:43.969Z,985.58
2018-03-11T14:23:43.937Z,985.61
2018-03-11T14:25:36.872Z,985.64
2018-03-11T14:26:36.831Z,985.61
2018-03-11T14:28:30.170Z,985.59
2018-03-11T14:29:30.128Z,985.55
2018-03-11T14:31:23.133Z,985.63
2018-03-11T14:32:23.052Z,985.68
2018-03-11T14:34:16.015Z,985.69
2018-03-11T14:35:16.113Z,985.69
2018-03-11T14:37:09.342Z,985.72
2018-03-11T14:38:09.277Z,985.70
2018-03-11T14:40:02.214Z,985.66
2018-03-11T14:41:02.198Z,985.63
2018-03-11T14:42:55.459Z,985.63
2018-03-11T14:43:55.333Z,985.65
2018-03-11T14:45:48.310Z,985.64
2018-03-11T14:46:48.271Z,985.61
2018-03-11T14:48:41.300Z,985.56
2018-03-11T14:49:41.227Z,985.52
2018-03-11T14:51:34.110Z,985.55
2018-03-11T14:52:34.013Z,985.53
2018-03-11T14:54:26.929Z,985.56
2018-03-11T14:55:26.804Z,985.57
2018-03-11T14:57:19.773Z,985.59
2018-03-11T14:58:19.735Z,985.58
2018-03-11T15:00:12.739Z,985.55
2018-03-11T15:01:12.671Z,985.53
2018-03-11T15:03:05.860Z,985.51
2018-03-11T15:04:05.764Z,985.48
2018-03-11T15:05:58.700Z,985.49
2018-03-11T15:06:58.669Z,985.45
2018-03-11T15:08:51.660Z,985.40
2018-03-11T15:09:51.631Z,985.47
2018-03-11T15:11:44.424Z,985.49
2018-03-11T15:12:44.412Z,985.54
2018-03-11T15:14:37.389Z,985.48
2018-03-11T15:15:37.323Z,985.45
2018-03-11T15:17:30.261Z,985.40
2018-03-11T15:18:30.230Z,985.41
2018-03-11T15:20:23.544Z,985.39
2018-03-11T15:21:23.530Z,985.38
2018-03-11T15:23:16.511Z,985.34
2018-03-11T15:24:16.599Z,985.34
2018-03-11T15:26:09.404Z,985.28
2018-03-11T15:27:09.369Z,985.23
2018-03-11T15:29:02.213Z,985.16
2018-03-11T15:30:02.178Z,985.14
2018-03-11T15:31:54.990Z,985.22
2018-03-11T15:32:54.939Z,985.21
2018-03-11T15:34:47.925Z,985.21
2018-03-11T15:35:47.884Z,985.22
2018-03-11T15:37:40.880Z,985.17
2018-03-11T15:38:40.795Z,985.17
2018-03-11T15:40:33.918Z,985.21
2018-03-11T15:41:33.846Z,985.20
2018-03-11T15:43:26.803Z,985.25
2018-03-11T15:44:26.789Z,985.27
2018-03-11T15:46:19.745Z,985.27
2018-03-11T15:47:19.679Z,985.27
2018-03-11T15:49:12.505Z,985.23
2018-03-11T15:50:12.455Z,985.24
2018-03-11T15:52:05.380Z,985.25
2018-03-11T15:53:05.238Z,985.23
2018-03-11T15:54:58.229Z,985.29
2018-03-11T15:55:58.184Z,985.30
2018-03-11T15:57:51.184Z,985.30
2018-03-11T15:58:51.144Z,985.26
2018-03-11T16:00:44.034Z,985.25
2018-03-11T16:01:43.980Z,985.28
2018-03-11T16:03:36.931Z,985.27
2018-03-11T16:04:36.915Z,985.26
2018-03-11T16:06:29.978Z,985.29
2018-03-11T16:07:29.831Z,985.26
2018-03-11T16:09:23.027Z,985.29
2018-03-11T16:10:22.922Z,985.30
2018-03-11T16:12:15.886Z,985.29
2018-03-11T16:13:15.875Z,985.30
2018-03-11T16:15:08.853Z,985.32
2018-03-11T16:16:08.778Z,985.30
2018-03-11T16:18:01.979Z,985.31
2018-03-11T16:19:01.912Z,985.28
2018-03-11T16:20:54.926Z,985.25
2018-03-11T16:21:54.843Z,985.25
2018-03-11T16:23:47.780Z,985.26
2018-03-11T16:24:47.755Z,985.24
2018-03-11T16:26:40.605Z,985.21
2018-03-11T16:27:40.526Z,985.20
2018-03-11T16:29:33.376Z,985.17
2018-03-11T16:30:33.323Z,985.15
2018-03-11T16:32:26.311Z,985.14
2018-03-11T16:33:26.260Z,985.11
2018-03-11T16:35:19.240Z,985.09
2018-03-11T16:36:19.190Z,985.02
2018-03-11T16:38:12.029Z,985.05
2018-03-11T16:39:11.973Z,985.06
2018-03-11T16:41:04.935Z,985.10
2018-03-11T16:42:04.890Z,985.06
2018-03-11T16:43:57.853Z,985.10
2018-03-11T16:44:57.820Z,985.11
2018-03-11T16:46:50.769Z,985.10
2018-03-11T16:47:50.754Z,985.07
2018-03-11T16:49:43.590Z,985.06
2018-03-11T16:50:43.534Z,985.04
2018-03-11T16:52:36.565Z,985.06
2018-03-11T16:53:36.506Z,985.09
2018-03-11T16:55:29.436Z,985.06
2018-03-11T16:56:29.410Z,985.02
2018-03-11T16:58:22.249Z,985.03
2018-03-11T16:59:22.173Z,985.04
2018-03-11T17:01:15.246Z,985.05
2018-03-11T17:02:15.196Z,985.04
2018-03-11T17:04:08.185Z,985.09
2018-03-11T17:05:08.110Z,985.06
2018-03-11T17:07:01.424Z,985.05
2018-03-11T17:08:01.346Z,985.02
2018-03-11T17:09:54.380Z,985.05
2018-03-11T17:10:54.310Z,985.07
2018-03-11T17:12:47.274Z,985.15
2018-03-11T17:13:47.240Z,985.17
2018-03-11T17:15:40.114Z,985.18
2018-03-11T17:16:40.062Z,985.15
2018-03-11T17:18:33.058Z,985.10
2018-03-11T17:19:32.969Z,985.09
2018-03-11T17:21:26.006Z,985.05
2018-03-11T17:22:26.010Z,985.05
2018-03-11T17:24:18.950Z,985.11
2018-03-11T17:25:18.939Z,985.11
2018-03-11T17:27:11.867Z,985.10
2018-03-11T17:28:11.830Z,985.12
2018-03-11T17:30:04.805Z,985.12
2018-03-11T17:31:04.751Z,985.14
2018-03-11T17:32:57.595Z,985.14
2018-03-11T17:33:57.535Z,985.16
2018-03-11T17:35:50.359Z,985.17
2018-03-11T17:36:50.331Z,985.20
2018-03-11T17:38:43.300Z,985.16
2018-03-11T17:39:43.231Z,985.14
2018-03-11T17:41:36.673Z,985.16
2018-03-11T17:42:36.193Z,985.18
2018-03-11T17:44:29.150Z,985.20
2018-03-11T17:45:29.086Z,985.23
2018-03-11T17:47:22.001Z,985.25
2018-03-11T17:48:21.997Z,985.24
2018-03-11T17:50:14.930Z,985.27
2018-03-11T17:51:14.898Z,985.30
2018-03-11T17:53:07.896Z,985.28
2018-03-11T17:54:07.852Z,985.29
2018-03-11T17:56:00.996Z,985.28
2018-03-11T17:57:00.944Z,985.27
2018-03-11T17:58:53.920Z,985.26